Flight Track Log - Related Links

Times and Time Zones

All times are in EDT time to prevent confusion due to time zone crossing. See the EJA729 flight status page for this flight to view local times or setup timezone preferences in your user account.

Time Position Orientation Groundspeed Altitude Reporting Facility
EDT Latitude Longitude Course Direction KTS MPH feet Rate Location/Type
Wed 02:01:05 PM 42.4272 -122.8500 105° East 217 250 5,500  Level Seattle Center
Wed 02:02:06 PM 42.4350 -122.7308 85° East 300 345 10,400 4,131 Climbing Seattle Center
Wed 02:03:07 PM 42.4028 -122.6139 110° East 335 386 13,900 3,295 Climbing Seattle Center
Wed 02:04:08 PM 42.3647 -122.4747 110° East 391 450 17,100 2,852 Climbing Seattle Center
Wed 02:05:09 PM 42.3219 -122.3228 111° Southeast 426 490 19,700 2,410 Climbing Seattle Center
Wed 02:06:00 PM 42.1975 -121.9530 105° East  Level FlightAware Approximate
Wed 02:06:10 PM 42.2778 -122.1667 111° Southeast 442 509 22,000  Level Seattle Center
Wed 02:07:11 PM 42.2289 -122.0008 112° Southeast 466 536 24,300 2,115 Climbing Seattle Center
Wed 02:08:12 PM 42.1822 -121.8272 110° East 478 550 26,300 1,902 Climbing Seattle Center
Wed 02:09:14 PM 42.1325 -121.6522 111° Southeast 491 565 28,200 1,805 Climbing Seattle Center
Wed 02:10:15 PM 42.0789 -121.4792 113° Southeast 498 573 30,000 1,574 Climbing Seattle Center
Wed 02:11:16 PM 42.0239 -121.3039 113° Southeast 507 583 31,400 1,623 Climbing Seattle Center
Wed 02:12:17 PM 41.9706 -121.1264 112° Southeast 511 588 33,300 1,721 Climbing Seattle Center
Wed 02:13:18 PM 41.9164 -120.9522 113° Southeast 507 583 34,900 1,574 Climbing Seattle Center
Wed 02:14:19 PM 41.8614 -120.7789 113° Southeast 505 581 36,500 1,525 Climbing Seattle Center
Wed 02:15:20 PM 41.8097 -120.6067 112° Southeast 499 574 38,000 1,171 Climbing Seattle Center
Wed 02:16:22 PM 41.7547 -120.4331 113° Southeast 506 582 38,900 488 Climbing Seattle Center
Wed 02:17:23 PM 41.6989 -120.2564 113° Southeast 516 594 39,000 49 Climbing Seattle Center
Wed 02:18:24 PM 41.6278 -120.0469 114° Southeast 516 594 39,000  Level Seattle Center
Wed 02:19:25 PM 41.5764 -119.8700 111° Southeast 512 589 39,000  Level Seattle Center
Wed 02:20:26 PM 41.5194 -119.6969 114° Southeast 512 589 39,000  Level Seattle Center
Wed 02:21:27 PM 41.4617 -119.5275 114° Southeast 506 582 39,000  Level Seattle Center
Wed 02:22:28 PM 41.4150 -119.3553 110° East 497 572 39,000  Level Seattle Center
Wed 02:23:29 PM 41.3706 -119.1919 110° East 489 563 39,000  Level Seattle Center
Wed 02:24:30 PM 41.3186 -119.0078 111° Southeast 480 552 39,000  Level Seattle Center
Wed 02:25:32 PM 41.2756 -118.8492 110° East 476 548 39,000  Level Seattle Center
Wed 02:26:33 PM 41.2328 -118.6903 110° East 476 548 39,000  Level Seattle Center
Wed 02:27:34 PM 41.1806 -118.5067 111° Southeast 477 549 39,000  Level Seattle Center
Wed 02:28:35 PM 41.1364 -118.3528 111° Southeast 470 541 39,000  Level Seattle Center
Wed 02:29:36 PM 41.0933 -118.1975 110° East 468 539 39,000  Level Seattle Center
Wed 02:31:04 PM 41.0214 -117.9403 110° East 466 536 39,000  Level Salt Lake Center
Wed 02:32:06 PM 40.9778 -117.7881 111° Southeast 464 534 39,000  Level Salt Lake Center
Wed 02:33:08 PM 40.9331 -117.6356 111° Southeast 463 533 39,000  Level Salt Lake Center
Wed 02:34:10 PM 40.8822 -117.4597 111° Southeast 459 528 39,000  Level Salt Lake Center
Wed 02:35:12 PM 40.8383 -117.3094 111° Southeast 458 527 39,000  Level Salt Lake Center
Wed 02:36:14 PM 40.7869 -117.1336 111° Southeast 457 526 39,000  Level Salt Lake Center
Wed 02:37:16 PM 40.7425 -116.9825 111° Southeast 460 529 39,000  Level Salt Lake Center
Wed 02:38:18 PM 40.6894 -116.8050 111° Southeast 461 531 39,000  Level Salt Lake Center
Wed 02:39:20 PM 40.6450 -116.6539 111° Southeast 459 528 39,000  Level Salt Lake Center
Wed 02:40:22 PM 40.5989 -116.5036 112° Southeast 458 527 39,000  Level Salt Lake Center
Wed 02:41:24 PM 40.5253 -116.3464 122° Southeast 449 517 39,000  Level Salt Lake Center
Wed 02:42:26 PM 40.4392 -116.2397 137° Southeast 443 510 39,000  Level Salt Lake Center
Wed 02:43:28 PM 40.3392 -116.1144 136° Southeast 443 510 39,000  Level Salt Lake Center
Wed 02:44:30 PM 40.2531 -116.0072 136° Southeast 444 511 39,000  Level Salt Lake Center
Wed 02:45:32 PM 40.1519 -115.8819 137° Southeast 446 513 39,000 -97 Level Salt Lake Center
Wed 02:46:34 PM 40.0647 -115.7758 137° Southeast 447 514 38,800 -774 Descending Salt Lake Center
Wed 02:47:36 PM 39.9614 -115.6458 136° Southeast 461 531 37,400 -1,258 Descending Salt Lake Center
Wed 02:48:38 PM 39.8675 -115.5317 137° Southeast 478 550 36,200 -1,113 Descending Salt Lake Center
Wed 02:49:40 PM 39.7725 -115.4175 137° Southeast 484 557 35,100 -1,210 Descending Salt Lake Center
Wed 02:50:42 PM 39.6650 -115.2856 137° Southeast 478 550 33,700 -1,016 Descending Salt Lake Center
Wed 02:51:44 PM 39.5719 -115.1742 137° Southeast 474 545 33,000 -339 Descending Salt Lake Center
Wed 02:52:46 PM 39.4617 -115.0425 137° Southeast 481 554 33,000  Level Salt Lake Center
Wed 02:53:48 PM 39.3675 -114.9292 137° Southeast 483 556 33,000  Level Salt Lake Center
Wed 02:54:50 PM 39.2547 -114.7967 138° Southeast 488 562 33,000  Level Salt Lake Center
Wed 02:55:52 PM 39.1586 -114.6908 139° Southeast 482 555 33,000  Level Salt Lake Center
Wed 02:56:54 PM 39.0572 -114.5764 139° Southeast 485 558 33,000 -435 Level Salt Lake Center
Wed 02:57:56 PM 38.9342 -114.4397 139° Southeast 487 560 32,100 -1,161 Descending Salt Lake Center
Wed 02:58:58 PM 38.8300 -114.3239 139° Southeast 495 570 30,600 -1,440 Descending Salt Lake Center
Wed 03:00:01 PM 38.7278 -114.2100 139° Southeast 489 563 29,100 -1,452 Descending Salt Lake Center
Wed 03:01:02 PM 38.6253 -114.0983 140° Southeast 486 559 27,600 -1,452 Descending Salt Lake Center
Wed 03:02:05 PM 38.5272 -113.9906 139° Southeast 471 542 26,100 -1,248 Descending Salt Lake Center
Wed 03:03:07 PM 38.4278 -113.8817 139° Southeast 470 541 25,000 -677 Descending Salt Lake Center
Wed 03:04:09 PM 38.3072 -113.7522 140° Southeast 472 543 24,700 -1,403 Descending Salt Lake Center
Wed 03:05:11 PM 38.2075 -113.6442 140° Southeast 474 545 22,100 -2,732 Descending Salt Lake Center
Wed 03:06:12 PM 38.1169 -113.5489 140° Southeast 449 517 19,100 -2,829 Descending Salt Lake Center
Wed 03:07:14 PM 38.0342 -113.4589 139° Southeast 420 483 16,300 -2,274 Descending Salt Lake Center
Wed 03:08:16 PM 37.9608 -113.3789 139° Southeast 382 440 14,400 -1,694 Descending Salt Lake Center
Wed 03:09:18 PM 37.8944 -113.3078 140° Southeast 342 394 12,800 -1,548 Descending Salt Lake Center

Login

Don't have an account? Register now (free) for customized features, flight alerts, and more!